sensor_id;sensor_type;location;lat;lon;timestamp;pressure;altitude;pressure_sealevel;temperature;humidity
43115;BME280;28727;50.068;14.452;2023-12-29T00:02:20;99092.16;;;9.52;63.79
43115;BME280;28727;50.068;14.452;2023-12-29T00:04:52;99102.34;;;9.55;64.07
43115;BME280;28727;50.068;14.452;2023-12-29T00:07:24;99097.88;;;9.56;63.91
43115;BME280;28727;50.068;14.452;2023-12-29T00:09:57;99103.81;;;9.58;63.88
43115;BME280;28727;50.068;14.452;2023-12-29T00:12:29;99111.22;;;9.62;64.11
43115;BME280;28727;50.068;14.452;2023-12-29T00:15:01;99109.78;;;9.60;63.71
43115;BME280;28727;50.068;14.452;2023-12-29T00:17:33;99122.44;;;9.64;63.96
43115;BME280;28727;50.068;14.452;2023-12-29T00:20:09;99115.50;;;9.63;64.21
43115;BME280;28727;50.068;14.452;2023-12-29T00:22:43;99120.44;;;9.66;63.99
43115;BME280;28727;50.068;14.452;2023-12-29T00:25:14;99117.81;;;9.66;63.88
43115;BME280;28727;50.068;14.452;2023-12-29T00:27:47;99127.56;;;9.66;63.68
43115;BME280;28727;50.068;14.452;2023-12-29T00:30:19;99120.44;;;9.66;63.92
43115;BME280;28727;50.068;14.452;2023-12-29T00:32:57;99119.97;;;9.71;63.71
43115;BME280;28727;50.068;14.452;2023-12-29T00:35:30;99118.47;;;9.68;63.59
43115;BME280;28727;50.068;14.452;2023-12-29T00:38:02;99121.75;;;9.70;63.69
43115;BME280;28727;50.068;14.452;2023-12-29T00:40:35;99119.97;;;9.71;63.81
43115;BME280;28727;50.068;14.452;2023-12-29T00:43:12;99125.72;;;9.74;63.58
43115;BME280;28727;50.068;14.452;2023-12-29T00:45:47;99130.66;;;9.77;63.74
43115;BME280;28727;50.068;14.452;2023-12-29T00:48:19;99138.22;;;9.80;63.50
43115;BME280;28727;50.068;14.452;2023-12-29T00:50:51;99139.03;;;9.81;63.71
43115;BME280;28727;50.068;14.452;2023-12-29T00:53:27;99131.59;;;9.84;64.10
43115;BME280;28727;50.068;14.452;2023-12-29T00:56:02;99119.44;;;9.83;63.75
43115;BME280;28727;50.068;14.452;2023-12-29T00:58:36;99122.69;;;9.85;63.94
43115;BME280;28727;50.068;14.452;2023-12-29T01:01:11;99132.94;;;9.89;63.77
43115;BME280;28727;50.068;14.452;2023-12-29T01:03:43;99134.75;;;9.88;63.85
43115;BME280;28727;50.068;14.452;2023-12-29T01:06:17;99128.28;;;9.91;64.05
43115;BME280;28727;50.068;14.452;2023-12-29T01:08:50;99122.69;;;9.94;64.09
43115;BME280;28727;50.068;14.452;2023-12-29T01:11:22;99126.78;;;9.96;63.94
43115;BME280;28727;50.068;14.452;2023-12-29T01:13:58;99130.91;;;9.99;64.28
43115;BME280;28727;50.068;14.452;2023-12-29T01:16:30;99130.75;;;10.00;64.24
43115;BME280;28727;50.068;14.452;2023-12-29T01:19:02;99128.59;;;10.04;64.08
43115;BME280;28727;50.068;14.452;2023-12-29T01:21:37;99122.31;;;10.05;64.17
43115;BME280;28727;50.068;14.452;2023-12-29T01:24:09;99134.00;;;10.10;63.94
43115;BME280;28727;50.068;14.452;2023-12-29T01:26:43;99139.28;;;10.10;64.09
43115;BME280;28727;50.068;14.452;2023-12-29T01:29:14;99138.44;;;10.10;64.30
43115;BME280;28727;50.068;14.452;2023-12-29T01:31:47;99148.50;;;10.14;64.20
43115;BME280;28727;50.068;14.452;2023-12-29T01:34:19;99143.22;;;10.14;64.39
43115;BME280;28727;50.068;14.452;2023-12-29T01:36:51;99135.00;;;10.17;64.24
43115;BME280;28727;50.068;14.452;2023-12-29T01:39:23;99133.81;;;10.20;64.46
43115;BME280;28727;50.068;14.452;2023-12-29T01:41:58;99133.19;;;10.18;64.55
43115;BME280;28727;50.068;14.452;2023-12-29T01:44:29;99139.75;;;10.22;64.60
43115;BME280;28727;50.068;14.452;2023-12-29T01:47:02;99136.94;;;10.23;64.79
43115;BME280;28727;50.068;14.452;2023-12-29T01:49:37;99120.13;;;10.24;64.79
43115;BME280;28727;50.068;14.452;2023-12-29T01:52:09;99123.75;;;10.23;64.98
43115;BME280;28727;50.068;14.452;2023-12-29T01:54:42;99114.34;;;10.21;65.15
43115;BME280;28727;50.068;14.452;2023-12-29T01:57:17;99127.91;;;10.18;65.55
43115;BME280;28727;50.068;14.452;2023-12-29T01:59:49;99125.25;;;10.18;65.37
43115;BME280;28727;50.068;14.452;2023-12-29T02:02:21;99112.69;;;10.20;65.39
43115;BME280;28727;50.068;14.452;2023-12-29T02:04:53;99114.34;;;10.21;65.44
43115;BME280;28727;50.068;14.452;2023-12-29T02:07:25;99095.41;;;10.17;65.79
43115;BME280;28727;50.068;14.452;2023-12-29T02:10:01;99102.50;;;10.17;65.85
43115;BME280;28727;50.068;14.452;2023-12-29T02:12:35;99101.69;;;10.16;65.69
43115;BME280;28727;50.068;14.452;2023-12-29T02:15:15;99087.97;;;10.13;65.77
43115;BME280;28727;50.068;14.452;2023-12-29T02:18:07;99089.31;;;10.09;66.39
43115;BME280;28727;50.068;14.452;2023-12-29T02:20:42;99085.38;;;10.05;66.19
43115;BME280;28727;50.068;14.452;2023-12-29T02:23:14;99074.34;;;10.01;66.33
43115;BME280;28727;50.068;14.452;2023-12-29T02:25:46;99082.44;;;10.00;66.67
43115;BME280;28727;50.068;14.452;2023-12-29T02:28:25;99071.22;;;9.98;66.65
43115;BME280;28727;50.068;14.452;2023-12-29T02:31:13;99070.09;;;9.92;67.12
43115;BME280;28727;50.068;14.452;2023-12-29T02:33:47;99069.41;;;9.90;67.04
43115;BME280;28727;50.068;14.452;2023-12-29T02:36:22;99070.94;;;9.84;67.19
43115;BME280;28727;50.068;14.452;2023-12-29T02:38:56;99055.63;;;9.80;67.65
43115;BME280;28727;50.068;14.452;2023-12-29T02:41:29;99052.00;;;9.81;67.73
43115;BME280;28727;50.068;14.452;2023-12-29T02:44:00;99057.94;;;9.83;67.49
43115;BME280;28727;50.068;14.452;2023-12-29T02:46:32;99049.81;;;9.84;67.23
43115;BME280;28727;50.068;14.452;2023-12-29T02:49:07;99036.81;;;9.83;67.48
43115;BME280;28727;50.068;14.452;2023-12-29T02:51:43;99050.19;;;9.81;68.03
43115;BME280;28727;50.068;14.452;2023-12-29T02:54:17;99043.25;;;9.80;67.59
43115;BME280;28727;50.068;14.452;2023-12-29T02:56:50;99054.63;;;9.81;67.53
43115;BME280;28727;50.068;14.452;2023-12-29T02:59:28;99062.53;;;9.81;67.66
43115;BME280;28727;50.068;14.452;2023-12-29T03:02:04;99060.56;;;9.83;67.28
43115;BME280;28727;50.068;14.452;2023-12-29T03:04:35;99050.84;;;9.83;67.03
43115;BME280;28727;50.068;14.452;2023-12-29T03:07:07;99049.00;;;9.84;67.41
43115;BME280;28727;50.068;14.452;2023-12-29T03:09:40;99055.41;;;9.90;67.48
43115;BME280;28727;50.068;14.452;2023-12-29T03:12:11;99049.34;;;9.89;67.22
43115;BME280;28727;50.068;14.452;2023-12-29T03:14:44;99038.94;;;9.88;67.10
43115;BME280;28727;50.068;14.452;2023-12-29T03:17:19;99026.75;;;9.86;67.18
43115;BME280;28727;50.068;14.452;2023-12-29T03:19:52;99038.78;;;9.89;67.13
43115;BME280;28727;50.068;14.452;2023-12-29T03:22:25;99033.31;;;9.91;67.21
43115;BME280;28727;50.068;14.452;2023-12-29T03:24:57;99021.78;;;9.92;67.00
43115;BME280;28727;50.068;14.452;2023-12-29T03:27:29;99031.66;;;9.90;66.87
43115;BME280;28727;50.068;14.452;2023-12-29T03:30:02;99029.38;;;9.86;66.75
43115;BME280;28727;50.068;14.452;2023-12-29T03:32:34;99012.44;;;9.81;67.20
43115;BME280;28727;50.068;14.452;2023-12-29T03:35:06;99009.13;;;9.79;67.11
43115;BME280;28727;50.068;14.452;2023-12-29T03:37:38;98997.13;;;9.76;66.76
43115;BME280;28727;50.068;14.452;2023-12-29T03:40:11;99009.00;;;9.72;67.28
43115;BME280;28727;50.068;14.452;2023-12-29T03:42:44;99005.72;;;9.70;67.31
43115;BME280;28727;50.068;14.452;2023-12-29T03:45:16;99002.44;;;9.68;67.06
43115;BME280;28727;50.068;14.452;2023-12-29T03:47:48;98999.63;;;9.70;67.27
43115;BME280;28727;50.068;14.452;2023-12-29T03:50:20;98993.53;;;9.61;67.19
43115;BME280;28727;50.068;14.452;2023-12-29T03:52:53;98996.53;;;9.58;67.09
43115;BME280;28727;50.068;14.452;2023-12-29T03:55:25;98998.50;;;9.56;67.45
43115;BME280;28727;50.068;14.452;2023-12-29T03:57:57;99001.97;;;9.57;67.13
43115;BME280;28727;50.068;14.452;2023-12-29T04:00:29;98994.91;;;9.57;67.32
43115;BME280;28727;50.068;14.452;2023-12-29T04:03:02;98992.63;;;9.54;67.12
43115;BME280;28727;50.068;14.452;2023-12-29T04:05:35;98992.13;;;9.51;66.96
43115;BME280;28727;50.068;14.452;2023-12-29T04:08:07;98984.22;;;9.51;67.35
43115;BME280;28727;50.068;14.452;2023-12-29T04:10:41;98971.19;;;9.49;67.34
43115;BME280;28727;50.068;14.452;2023-12-29T04:13:13;98962.97;;;9.44;67.52
43115;BME280;28727;50.068;14.452;2023-12-29T04:15:46;98960.16;;;9.45;67.29
43115;BME280;28727;50.068;14.452;2023-12-29T04:18:21;98953.09;;;9.46;66.98
43115;BME280;28727;50.068;14.452;2023-12-29T04:20:53;98952.94;;;9.48;67.32
43115;BME280;28727;50.068;14.452;2023-12-29T04:23:25;98943.53;;;9.45;67.20
43115;BME280;28727;50.068;14.452;2023-12-29T04:25:57;98941.06;;;9.43;67.60
43115;BME280;28727;50.068;14.452;2023-12-29T04:28:29;98942.41;;;9.39;67.50
43115;BME280;28727;50.068;14.452;2023-12-29T04:31:01;98943.69;;;9.43;67.28
43115;BME280;28727;50.068;14.452;2023-12-29T04:33:36;98924.94;;;9.38;67.55
43115;BME280;28727;50.068;14.452;2023-12-29T04:36:11;98927.75;;;9.37;67.37
43115;BME280;28727;50.068;14.452;2023-12-29T04:38:43;98917.56;;;9.34;67.76
43115;BME280;28727;50.068;14.452;2023-12-29T04:41:18;98908.81;;;9.33;67.55
43115;BME280;28727;50.068;14.452;2023-12-29T04:43:50;98904.38;;;9.34;67.68
43115;BME280;28727;50.068;14.452;2023-12-29T04:46:22;98893.81;;;9.34;67.91
43115;BME280;28727;50.068;14.452;2023-12-29T04:48:54;98902.41;;;9.36;67.80
43115;BME280;28727;50.068;14.452;2023-12-29T04:51:27;98893.97;;;9.40;67.75
43115;BME280;28727;50.068;14.452;2023-12-29T04:53:58;98894.94;;;9.39;67.69
43115;BME280;28727;50.068;14.452;2023-12-29T04:56:30;98887.50;;;9.43;67.61
43115;BME280;28727;50.068;14.452;2023-12-29T04:59:02;98888.81;;;9.47;67.16
43115;BME280;28727;50.068;14.452;2023-12-29T05:01:36;98895.91;;;9.47;67.42
43115;BME280;28727;50.068;14.452;2023-12-29T05:04:11;98889.00;;;9.45;67.41
43115;BME280;28727;50.068;14.452;2023-12-29T05:06:43;98897.38;;;9.49;67.25
43115;BME280;28727;50.068;14.452;2023-12-29T05:09:15;98912.03;;;9.52;67.12
43115;BME280;28727;50.068;14.452;2023-12-29T05:11:47;98912.69;;;9.54;66.88
43115;BME280;28727;50.068;14.452;2023-12-29T05:14:23;98908.03;;;9.56;67.15
43115;BME280;28727;50.068;14.452;2023-12-29T05:16:55;98911.34;;;9.58;67.19
43115;BME280;28727;50.068;14.452;2023-12-29T05:19:27;98919.56;;;9.63;66.49
43115;BME280;28727;50.068;14.452;2023-12-29T05:21:59;98926.63;;;9.62;66.38
43115;BME280;28727;50.068;14.452;2023-12-29T05:24:31;98924.66;;;9.64;66.47
43115;BME280;28727;50.068;14.452;2023-12-29T05:27:03;98926.31;;;9.65;66.63
43115;BME280;28727;50.068;14.452;2023-12-29T05:29:35;98928.75;;;9.67;66.28
43115;BME280;28727;50.068;14.452;2023-12-29T05:32:07;98933.19;;;9.66;66.38
43115;BME280;28727;50.068;14.452;2023-12-29T05:34:39;98927.28;;;9.64;66.19
43115;BME280;28727;50.068;14.452;2023-12-29T05:37:11;98921.03;;;9.65;66.47
43115;BME280;28727;50.068;14.452;2023-12-29T05:39:43;98928.75;;;9.67;65.97
43115;BME280;28727;50.068;14.452;2023-12-29T05:42:15;98926.09;;;9.67;66.51
43115;BME280;28727;50.068;14.452;2023-12-29T05:44:50;98923.47;;;9.67;66.07
43115;BME280;28727;50.068;14.452;2023-12-29T05:47:22;98926.94;;;9.67;66.22
43115;BME280;28727;50.068;14.452;2023-12-29T05:49:54;98924.78;;;9.71;65.97
43115;BME280;28727;50.068;14.452;2023-12-29T05:52:26;98929.53;;;9.75;65.63
43115;BME280;28727;50.068;14.452;2023-12-29T05:54:58;98931.50;;;9.73;65.50
43115;BME280;28727;50.068;14.452;2023-12-29T05:57:30;98936.78;;;9.73;65.38
43115;BME280;28727;50.068;14.452;2023-12-29T06:00:09;98928.88;;;9.73;65.84
43115;BME280;28727;50.068;14.452;2023-12-29T06:02:46;98930.88;;;9.71;65.74
43115;BME280;28727;50.068;14.452;2023-12-29T06:05:21;98926.59;;;9.70;65.77
43115;BME280;28727;50.068;14.452;2023-12-29T06:07:53;98950.34;;;9.70;65.41
43115;BME280;28727;50.068;14.452;2023-12-29T06:10:27;98948.53;;;9.71;65.72
43115;BME280;28727;50.068;14.452;2023-12-29T06:13:01;98930.22;;;9.69;65.89
43115;BME280;28727;50.068;14.452;2023-12-29T06:15:35;98940.78;;;9.69;65.93
43115;BME280;28727;50.068;14.452;2023-12-29T06:18:08;98930.88;;;9.71;65.78
43115;BME280;28727;50.068;14.452;2023-12-29T06:20:40;98924.59;;;9.72;66.03
43115;BME280;28727;50.068;14.452;2023-12-29T06:23:15;98917.34;;;9.74;65.86
43115;BME280;28727;50.068;14.452;2023-12-29T06:25:48;98914.53;;;9.76;65.50
43115;BME280;28727;50.068;14.452;2023-12-29T06:28:20;98910.09;;;9.76;65.81
43115;BME280;28727;50.068;14.452;2023-12-29T06:30:52;98899.53;;;9.76;65.32
43115;BME280;28727;50.068;14.452;2023-12-29T06:33:24;98894.44;;;9.75;65.02
43115;BME280;28727;50.068;14.452;2023-12-29T06:35:56;98887.16;;;9.77;65.07
43115;BME280;28727;50.068;14.452;2023-12-29T06:38:28;98897.34;;;9.80;64.58
43115;BME280;28727;50.068;14.452;2023-12-29T06:41:02;98888.00;;;9.77;64.84
43115;BME280;28727;50.068;14.452;2023-12-29T06:43:34;98901.19;;;9.77;64.59
43115;BME280;28727;50.068;14.452;2023-12-29T06:46:06;98912.34;;;9.79;64.73
43115;BME280;28727;50.068;14.452;2023-12-29T06:48:40;98911.50;;;9.87;64.25
43115;BME280;28727;50.068;14.452;2023-12-29T06:51:16;98902.38;;;9.90;64.28
43115;BME280;28727;50.068;14.452;2023-12-29T06:53:49;98910.50;;;9.88;64.31
43115;BME280;28727;50.068;14.452;2023-12-29T06:56:24;98910.13;;;9.91;64.51
43115;BME280;28727;50.068;14.452;2023-12-29T06:58:55;98913.59;;;9.92;64.40
43115;BME280;28727;50.068;14.452;2023-12-29T07:01:27;98915.69;;;9.96;64.26
43115;BME280;28727;50.068;14.452;2023-12-29T07:03:59;98912.06;;;9.97;63.90
43115;BME280;28727;50.068;14.452;2023-12-29T07:06:34;98915.53;;;9.98;64.17
43115;BME280;28727;50.068;14.452;2023-12-29T07:09:06;98939.41;;;10.04;64.11
43115;BME280;28727;50.068;14.452;2023-12-29T07:11:39;98933.97;;;10.06;63.90
43115;BME280;28727;50.068;14.452;2023-12-29T07:14:11;98949.78;;;10.06;63.76
43115;BME280;28727;50.068;14.452;2023-12-29T07:16:43;98937.88;;;10.10;63.71
43115;BME280;28727;50.068;14.452;2023-12-29T07:19:15;98958.47;;;10.14;63.34
43115;BME280;28727;50.068;14.452;2023-12-29T07:21:47;98938.50;;;10.20;63.37
43115;BME280;28727;50.068;14.452;2023-12-29T07:24:19;98940.13;;;10.21;62.82
43115;BME280;28727;50.068;14.452;2023-12-29T07:26:51;98933.34;;;10.26;62.96
43115;BME280;28727;50.068;14.452;2023-12-29T07:29:23;98943.56;;;10.30;62.48
43115;BME280;28727;50.068;14.452;2023-12-29T07:31:56;98931.91;;;10.39;62.38
43115;BME280;28727;50.068;14.452;2023-12-29T07:34:29;98938.78;;;10.48;62.16
43115;BME280;28727;50.068;14.452;2023-12-29T07:37:03;98935.28;;;10.70;61.55
43115;BME280;28727;50.068;14.452;2023-12-29T07:39:36;98937.47;;;10.96;60.74
43115;BME280;28727;50.068;14.452;2023-12-29T07:42:08;98942.72;;;11.19;59.37
43115;BME280;28727;50.068;14.452;2023-12-29T07:44:43;98941.59;;;11.42;58.41
43115;BME280;28727;50.068;14.452;2023-12-29T07:47:15;98951.88;;;11.52;58.12
43115;BME280;28727;50.068;14.452;2023-12-29T07:49:49;98952.88;;;11.66;57.66
43115;BME280;28727;50.068;14.452;2023-12-29T07:52:21;98954.88;;;11.64;56.59
43115;BME280;28727;50.068;14.452;2023-12-29T07:54:53;98937.91;;;11.58;56.16
43115;BME280;28727;50.068;14.452;2023-12-29T07:57:25;98954.44;;;11.60;56.56
43115;BME280;28727;50.068;14.452;2023-12-29T07:59:57;98960.53;;;11.75;56.56
43115;BME280;28727;50.068;14.452;2023-12-29T08:02:29;98942.19;;;11.88;56.06
43115;BME280;28727;50.068;14.452;2023-12-29T08:05:02;98948.13;;;12.12;55.84
43115;BME280;28727;50.068;14.452;2023-12-29T08:07:35;98944.28;;;12.36;53.92
43115;BME280;28727;50.068;14.452;2023-12-29T08:10:10;98954.97;;;12.70;54.34
43115;BME280;28727;50.068;14.452;2023-12-29T08:12:42;98958.84;;;13.02;53.27
43115;BME280;28727;50.068;14.452;2023-12-29T08:15:16;98955.22;;;13.37;51.68
43115;BME280;28727;50.068;14.452;2023-12-29T08:17:48;98952.53;;;13.78;50.87
43115;BME280;28727;50.068;14.452;2023-12-29T08:20:20;98960.88;;;14.29;49.58
43115;BME280;28727;50.068;14.452;2023-12-29T08:22:54;98957.03;;;14.65;48.30
43115;BME280;28727;50.068;14.452;2023-12-29T08:25:25;98970.31;;;14.85;47.76
43115;BME280;28727;50.068;14.452;2023-12-29T08:27:57;98971.13;;;14.92;46.93
43115;BME280;28727;50.068;14.452;2023-12-29T08:30:30;98975.22;;;14.68;46.96
43115;BME280;28727;50.068;14.452;2023-12-29T08:33:02;98988.53;;;14.81;47.00
43115;BME280;28727;50.068;14.452;2023-12-29T08:35:33;98993.03;;;14.94;46.35
43115;BME280;28727;50.068;14.452;2023-12-29T08:38:06;99008.28;;;15.64;45.27
43115;BME280;28727;50.068;14.452;2023-12-29T08:40:37;99006.19;;;16.24;43.74
43115;BME280;28727;50.068;14.452;2023-12-29T08:43:09;99001.69;;;16.87;42.58
43115;BME280;28727;50.068;14.452;2023-12-29T08:45:41;99022.41;;;17.96;44.64
43115;BME280;28727;50.068;14.452;2023-12-29T08:48:13;99025.00;;;19.62;41.59
43115;BME280;28727;50.068;14.452;2023-12-29T08:50:49;99036.19;;;20.79;37.20
43115;BME280;28727;50.068;14.452;2023-12-29T08:53:20;99025.94;;;20.93;34.97
43115;BME280;28727;50.068;14.452;2023-12-29T08:55:52;99031.53;;;20.18;35.71
43115;BME280;28727;50.068;14.452;2023-12-29T08:58:26;99039.91;;;19.35;36.83
43115;BME280;28727;50.068;14.452;2023-12-29T09:00:58;99032.53;;;18.54;38.12
43115;BME280;28727;50.068;14.452;2023-12-29T09:03:30;99037.31;;;18.33;38.52
43115;BME280;28727;50.068;14.452;2023-12-29T09:06:03;99033.50;;;19.12;38.46
43115;BME280;28727;50.068;14.452;2023-12-29T09:08:35;99033.97;;;19.91;36.66
43115;BME280;28727;50.068;14.452;2023-12-29T09:11:07;99034.13;;;20.13;34.75
43115;BME280;28727;50.068;14.452;2023-12-29T09:13:40;99021.06;;;20.04;34.98
43115;BME280;28727;50.068;14.452;2023-12-29T09:16:12;99032.47;;;20.52;34.91
43115;BME280;28727;50.068;14.452;2023-12-29T09:18:45;99020.56;;;20.93;33.42
43115;BME280;28727;50.068;14.452;2023-12-29T09:21:17;99021.38;;;21.10;32.85
43115;BME280;28727;50.068;14.452;2023-12-29T09:23:48;99024.81;;;21.39;33.04
43115;BME280;28727;50.068;14.452;2023-12-29T09:26:22;99021.13;;;21.61;32.41
43115;BME280;28727;50.068;14.452;2023-12-29T09:28:53;99024.34;;;21.25;32.76
43115;BME280;28727;50.068;14.452;2023-12-29T09:31:25;99009.81;;;20.76;33.24
43115;BME280;28727;50.068;14.452;2023-12-29T09:33:57;99013.44;;;21.32;32.61
43115;BME280;28727;50.068;14.452;2023-12-29T09:36:29;98999.16;;;21.70;31.41
43115;BME280;28727;50.068;14.452;2023-12-29T09:39:01;98991.47;;;21.18;31.93
43115;BME280;28727;50.068;14.452;2023-12-29T09:41:38;99005.09;;;21.50;31.65
43115;BME280;28727;50.068;14.452;2023-12-29T09:44:14;98996.88;;;21.40;31.97
43115;BME280;28727;50.068;14.452;2023-12-29T09:46:50;99003.91;;;21.62;31.68
43115;BME280;28727;50.068;14.452;2023-12-29T09:49:25;99006.69;;;21.68;31.66
43115;BME280;28727;50.068;14.452;2023-12-29T09:51:58;98997.63;;;21.35;31.66
43115;BME280;28727;50.068;14.452;2023-12-29T09:54:31;99009.28;;;21.07;32.34
43115;BME280;28727;50.068;14.452;2023-12-29T09:57:04;99009.38;;;21.51;31.67
43115;BME280;28727;50.068;14.452;2023-12-29T09:59:38;99020.06;;;22.28;31.05
43115;BME280;28727;50.068;14.452;2023-12-29T10:04:50;99015.22;;;23.15;29.68
43115;BME280;28727;50.068;14.452;2023-12-29T10:07:26;99013.50;;;22.99;29.88
43115;BME280;28727;50.068;14.452;2023-12-29T10:10:01;99016.59;;;22.54;30.22
43115;BME280;28727;50.068;14.452;2023-12-29T10:21:01;99013.38;;;23.21;29.59
43115;BME280;28727;50.068;14.452;2023-12-29T10:24:10;98988.09;;;23.27;31.57
43115;BME280;28727;50.068;14.452;2023-12-29T10:26:40;98999.91;;;23.21;31.25
43115;BME280;28727;50.068;14.452;2023-12-29T10:29:13;98977.16;;;23.96;32.00
43115;BME280;28727;50.068;14.452;2023-12-29T10:31:50;98994.75;;;24.14;30.79
43115;BME280;28727;50.068;14.452;2023-12-29T10:34:23;98986.50;;;24.56;29.63
43115;BME280;28727;50.068;14.452;2023-12-29T10:37:02;98989.22;;;23.78;28.14
43115;BME280;28727;50.068;14.452;2023-12-29T10:39:36;98987.84;;;22.92;29.72
43115;BME280;28727;50.068;14.452;2023-12-29T10:42:08;98989.13;;;22.03;30.47
43115;BME280;28727;50.068;14.452;2023-12-29T10:44:42;98996.78;;;20.51;33.84
43115;BME280;28727;50.068;14.452;2023-12-29T10:47:14;98989.16;;;19.91;37.12
43115;BME280;28727;50.068;14.452;2023-12-29T10:49:46;98998.31;;;19.32;37.00
43115;BME280;28727;50.068;14.452;2023-12-29T10:52:23;98991.81;;;19.05;37.73
43115;BME280;28727;50.068;14.452;2023-12-29T10:55:07;99003.00;;;19.02;36.79
43115;BME280;28727;50.068;14.452;2023-12-29T10:57:40;98982.75;;;19.17;36.53
43115;BME280;28727;50.068;14.452;2023-12-29T11:00:12;98988.88;;;18.71;38.04
43115;BME280;28727;50.068;14.452;2023-12-29T11:02:53;98986.09;;;17.88;39.46
43115;BME280;28727;50.068;14.452;2023-12-29T11:05:26;98979.78;;;17.46;40.07
43115;BME280;28727;50.068;14.452;2023-12-29T11:07:58;98973.63;;;17.03;40.39
43115;BME280;28727;50.068;14.452;2023-12-29T11:10:31;98981.66;;;16.78;39.77
43115;BME280;28727;50.068;14.452;2023-12-29T11:13:03;98984.44;;;16.58;40.81
43115;BME280;28727;50.068;14.452;2023-12-29T11:15:38;98978.34;;;16.20;42.11
43115;BME280;28727;50.068;14.452;2023-12-29T11:18:14;98982.34;;;15.97;41.41
43115;BME280;28727;50.068;14.452;2023-12-29T11:20:48;98971.09;;;15.95;42.70
43115;BME280;28727;50.068;14.452;2023-12-29T11:23:20;98963.00;;;16.47;41.79
43115;BME280;28727;50.068;14.452;2023-12-29T11:25:52;98960.06;;;17.04;41.58
43115;BME280;28727;50.068;14.452;2023-12-29T11:28:30;98953.56;;;17.00;40.17
43115;BME280;28727;50.068;14.452;2023-12-29T11:31:02;98965.47;;;16.98;41.44
43115;BME280;28727;50.068;14.452;2023-12-29T11:36:50;98941.41;;;17.04;41.30
43115;BME280;28727;50.068;14.452;2023-12-29T11:39:45;98952.88;;;17.05;40.54
43115;BME280;28727;50.068;14.452;2023-12-29T11:42:33;98947.59;;;17.59;39.89
43115;BME280;28727;50.068;14.452;2023-12-29T11:45:31;98937.91;;;17.95;39.45
43115;BME280;28727;50.068;14.452;2023-12-29T11:48:12;98939.78;;;17.58;38.95
43115;BME280;28727;50.068;14.452;2023-12-29T11:50:46;98939.53;;;17.66;38.39
43115;BME280;28727;50.068;14.452;2023-12-29T11:53:31;98932.88;;;17.87;38.34
43115;BME280;28727;50.068;14.452;2023-12-29T11:56:14;98929.56;;;17.73;39.07
43115;BME280;28727;50.068;14.452;2023-12-29T11:58:46;98930.59;;;17.36;38.33
43115;BME280;28727;50.068;14.452;2023-12-29T12:01:33;98926.78;;;16.64;39.07
43115;BME280;28727;50.068;14.452;2023-12-29T12:04:45;98930.72;;;15.92;40.70
43115;BME280;28727;50.068;14.452;2023-12-29T12:13:03;98916.75;;;15.59;42.17
43115;BME280;28727;50.068;14.452;2023-12-29T12:15:38;98913.56;;;15.37;42.58
43115;BME280;28727;50.068;14.452;2023-12-29T12:18:11;98921.16;;;15.20;43.32
43115;BME280;28727;50.068;14.452;2023-12-29T12:20:50;98913.78;;;15.22;43.44
43115;BME280;28727;50.068;14.452;2023-12-29T12:23:24;98913.81;;;15.02;44.01
43115;BME280;28727;50.068;14.452;2023-12-29T12:26:00;98903.75;;;15.31;43.74
43115;BME280;28727;50.068;14.452;2023-12-29T12:28:36;98913.78;;;15.15;43.94
43115;BME280;28727;50.068;14.452;2023-12-29T12:31:12;98903.25;;;14.76;44.64
43115;BME280;28727;50.068;14.452;2023-12-29T12:33:53;98906.13;;;14.48;45.19
43115;BME280;28727;50.068;14.452;2023-12-29T12:36:27;98900.38;;;14.38;45.56
43115;BME280;28727;50.068;14.452;2023-12-29T12:38:59;98892.16;;;14.20;45.58
43115;BME280;28727;50.068;14.452;2023-12-29T12:41:31;98906.06;;;14.15;45.80
43115;BME280;28727;50.068;14.452;2023-12-29T12:44:10;98887.88;;;14.06;46.01
43115;BME280;28727;50.068;14.452;2023-12-29T12:46:50;98906.03;;;14.02;45.87
43115;BME280;28727;50.068;14.452;2023-12-29T12:49:26;98894.97;;;13.85;45.58
43115;BME280;28727;50.068;14.452;2023-12-29T12:51:58;98886.41;;;13.83;46.40
43115;BME280;28727;50.068;14.452;2023-12-29T12:54:33;98893.91;;;13.60;46.65
43115;BME280;28727;50.068;14.452;2023-12-29T12:57:06;98900.56;;;13.49;47.17
43115;BME280;28727;50.068;14.452;2023-12-29T12:59:38;98892.78;;;13.35;47.34
43115;BME280;28727;50.068;14.452;2023-12-29T13:02:13;98893.94;;;13.19;47.66
43115;BME280;28727;50.068;14.452;2023-12-29T13:04:46;98884.13;;;13.13;47.88
43115;BME280;28727;50.068;14.452;2023-12-29T13:07:18;98899.50;;;13.03;47.50
43115;BME280;28727;50.068;14.452;2023-12-29T13:09:50;98890.53;;;13.04;48.08
43115;BME280;28727;50.068;14.452;2023-12-29T13:12:24;98898.28;;;12.99;48.13
43115;BME280;28727;50.068;14.452;2023-12-29T13:15:06;98907.41;;;12.96;48.25
43115;BME280;28727;50.068;14.452;2023-12-29T13:17:50;98898.19;;;12.86;48.33
43115;BME280;28727;50.068;14.452;2023-12-29T13:20:22;98897.94;;;12.81;48.45
43115;BME280;28727;50.068;14.452;2023-12-29T13:22:56;98883.28;;;12.78;48.27
43115;BME280;28727;50.068;14.452;2023-12-29T13:25:27;98875.28;;;12.71;48.66
43115;BME280;28727;50.068;14.452;2023-12-29T13:28:00;98883.41;;;12.70;48.90
43115;BME280;28727;50.068;14.452;2023-12-29T13:30:33;98881.75;;;12.69;48.56
43115;BME280;28727;50.068;14.452;2023-12-29T13:33:15;98883.78;;;12.67;48.74
43115;BME280;28727;50.068;14.452;2023-12-29T13:36:01;98872.75;;;12.63;48.81
43115;BME280;28727;50.068;14.452;2023-12-29T13:38:44;98879.13;;;12.69;48.86
43115;BME280;28727;50.068;14.452;2023-12-29T13:41:22;98885.00;;;12.64;48.78
43115;BME280;28727;50.068;14.452;2023-12-29T13:43:55;98865.41;;;12.59;49.24
43115;BME280;28727;50.068;14.452;2023-12-29T13:46:35;98880.28;;;12.60;48.90
43115;BME280;28727;50.068;14.452;2023-12-29T13:49:08;98880.47;;;12.58;49.24
43115;BME280;28727;50.068;14.452;2023-12-29T13:51:41;98875.94;;;12.52;49.61